createdAt,value
2023-04-10T00:04:58.430Z,61.37
2023-04-10T00:10:01.278Z,61.49
2023-04-10T00:15:04.415Z,61.36
2023-04-10T00:20:10.068Z,61.46
2023-04-10T00:25:12.898Z,61.47
2023-04-10T00:30:15.950Z,61.72
2023-04-10T00:35:20.123Z,62.25
2023-04-10T00:40:22.911Z,62.42
2023-04-10T00:45:25.879Z,62.36
2023-04-10T00:50:30.039Z,62.16
2023-04-10T00:55:32.885Z,62.33
2023-04-10T01:00:35.757Z,62.70
2023-04-10T01:05:46.282Z,62.75
2023-04-10T01:10:54.894Z,63.14
2023-04-10T01:16:02.631Z,63.35
2023-04-10T01:21:09.363Z,63.26
2023-04-10T01:26:13.318Z,63.28
2023-04-10T01:31:22.393Z,63.22
2023-04-10T01:36:29.481Z,63.43
2023-04-10T01:41:34.379Z,63.58
2023-04-10T01:46:40.104Z,63.54
2023-04-10T01:51:43.879Z,63.49
2023-04-10T01:56:48.421Z,63.63
2023-04-10T02:01:58.494Z,63.73
2023-04-10T02:07:04.937Z,64.19
2023-04-10T02:12:11.393Z,64.37
2023-04-10T02:17:19.502Z,64.58
2023-04-10T02:22:27.865Z,64.55
2023-04-10T02:27:31.523Z,64.68
2023-04-10T02:32:36.877Z,64.81
2023-04-10T02:37:39.895Z,65.33
2023-04-10T02:42:44.050Z,64.84
2023-04-10T02:47:48.935Z,65.09
2023-04-10T02:52:51.936Z,65.00
2023-04-10T02:57:54.835Z,64.90
2023-04-10T03:02:59.213Z,64.91
2023-04-10T03:08:08.077Z,64.90
2023-04-10T03:13:10.996Z,64.93
2023-04-10T03:18:15.496Z,65.31
2023-04-10T03:23:20.591Z,65.01
2023-04-10T03:28:23.696Z,64.73
2023-04-10T03:33:27.990Z,64.81
2023-04-10T03:38:31.153Z,64.95
2023-04-10T03:43:34.321Z,64.85
2023-04-10T03:48:41.805Z,64.84
2023-04-10T03:53:46.107Z,65.21
2023-04-10T03:58:51.933Z,65.34
2023-04-10T04:03:57.680Z,65.49
2023-04-10T04:09:20.781Z,65.86
2023-04-10T04:14:44.732Z,65.50
2023-04-10T04:20:02.567Z,65.61
2023-04-10T04:25:25.821Z,65.51
2023-04-10T04:30:50.993Z,65.38
2023-04-10T04:35:59.752Z,65.49
2023-04-10T04:41:16.386Z,65.57
2023-04-10T04:46:36.058Z,65.52
2023-04-10T04:52:12.022Z,65.43
2023-04-10T04:57:18.418Z,65.63
2023-04-10T05:02:41.949Z,65.38
2023-04-10T05:08:06.244Z,65.29
2023-04-10T05:13:20.380Z,65.29
2023-04-10T05:18:43.010Z,64.72
2023-04-10T05:24:05.227Z,64.55
2023-04-10T05:29:28.273Z,64.54
2023-04-10T05:35:03.296Z,64.49
2023-04-10T05:40:12.726Z,64.19
2023-04-10T05:45:33.918Z,63.88
2023-04-10T05:50:54.904Z,63.74
2023-04-10T05:56:18.975Z,64.94
2023-04-10T06:01:38.944Z,62.49
2023-04-10T06:06:41.969Z,60.82
2023-04-10T06:11:47.622Z,60.32
2023-04-10T06:16:54.169Z,59.96
2023-04-10T06:21:57.084Z,59.71
2023-04-10T06:27:01.233Z,58.90
2023-04-10T06:32:04.182Z,58.38
2023-04-10T06:37:11.427Z,58.46
2023-04-10T06:42:15.642Z,57.98
2023-04-10T06:47:36.007Z,58.26
2023-04-10T06:52:38.898Z,57.99
2023-04-10T06:57:43.459Z,58.00
2023-04-10T07:02:46.402Z,57.43
2023-04-10T07:07:50.593Z,56.97
2023-04-10T07:12:54.728Z,55.88
2023-04-10T07:17:57.602Z,55.00
2023-04-10T07:23:00.467Z,54.49
2023-04-10T07:28:04.725Z,53.86
2023-04-10T07:33:07.918Z,54.05
2023-04-10T07:38:13.083Z,53.35
2023-04-10T07:43:17.283Z,52.45
2023-04-10T07:48:20.076Z,51.13
2023-04-10T07:53:23.078Z,48.76
2023-04-10T07:58:27.283Z,47.58
2023-04-10T08:03:30.354Z,46.63
2023-04-10T08:08:33.264Z,45.83
2023-04-10T08:13:37.451Z,45.17
2023-04-10T08:18:40.413Z,41.96
2023-04-10T08:23:43.252Z,41.68
2023-04-10T08:28:49.362Z,40.44
2023-04-10T08:33:52.755Z,39.26
2023-04-10T08:38:56.006Z,38.08
2023-04-10T08:44:00.221Z,39.70
2023-04-10T08:49:04.174Z,40.00
2023-04-10T08:54:09.041Z,40.26
2023-04-10T08:59:13.342Z,39.87
2023-04-10T09:04:16.959Z,40.37
2023-04-10T09:09:19.918Z,39.95
2023-04-10T09:14:25.246Z,40.01
2023-04-10T09:19:32.184Z,39.17
2023-04-10T09:24:38.156Z,39.42
2023-04-10T09:29:44.171Z,38.11
2023-04-10T09:34:54.852Z,38.48
2023-04-10T09:39:57.952Z,38.18
2023-04-10T09:45:02.908Z,38.53
2023-04-10T09:50:06.400Z,37.81
2023-04-10T09:55:17.855Z,36.88
2023-04-10T10:00:22.072Z,36.73
2023-04-10T10:05:28.105Z,36.18
2023-04-10T10:10:31.127Z,36.06
2023-04-10T10:15:42.729Z,35.86
2023-04-10T10:20:47.252Z,35.64
2023-04-10T10:25:51.464Z,34.63
2023-04-10T10:30:56.338Z,34.40
2023-04-10T10:36:01.342Z,33.69
2023-04-10T10:41:17.170Z,34.93
2023-04-10T10:46:31.003Z,35.06
2023-04-10T10:51:47.807Z,34.37
2023-04-10T10:56:50.839Z,34.35
2023-04-10T11:02:16.817Z,33.75
2023-04-10T11:07:20.093Z,33.20
2023-04-10T11:12:24.132Z,31.61
2023-04-10T11:17:54.373Z,30.88
2023-04-10T11:23:11.883Z,32.26
2023-04-10T11:28:35.182Z,31.79
2023-04-10T11:33:39.457Z,31.93
2023-04-10T11:38:42.346Z,31.76
2023-04-10T11:43:45.343Z,32.80
2023-04-10T11:48:53.420Z,31.99
2023-04-10T11:54:09.571Z,32.05
2023-04-10T11:59:14.407Z,31.82
2023-04-10T12:04:20.857Z,32.23
2023-04-10T12:09:24.766Z,32.25
2023-04-10T12:14:33.007Z,31.90
2023-04-10T12:19:39.388Z,33.06
2023-04-10T12:24:43.871Z,32.37
2023-04-10T12:29:47.426Z,32.22
2023-04-10T12:34:57.487Z,32.18
2023-04-10T12:40:07.064Z,32.00
2023-04-10T12:45:13.785Z,31.14
2023-04-10T12:50:20.867Z,30.47
2023-04-10T12:55:23.794Z,31.78
2023-04-10T13:00:26.694Z,31.36
2023-04-10T13:05:31.114Z,31.56
2023-04-10T13:10:33.966Z,31.84
2023-04-10T13:15:36.857Z,31.83
2023-04-10T13:20:42.146Z,31.52
2023-04-10T13:25:45.044Z,30.83
2023-04-10T13:30:47.945Z,29.39
2023-04-10T13:35:52.125Z,28.74
2023-04-10T13:40:55.080Z,28.79
2023-04-10T13:45:57.926Z,29.33
2023-04-10T13:51:02.074Z,29.59
2023-04-10T13:56:06.445Z,29.77
2023-04-10T14:01:09.315Z,29.64
2023-04-10T14:06:14.224Z,29.92
2023-04-10T14:11:17.173Z,30.72
2023-04-10T14:16:20.066Z,31.01
2023-04-10T14:21:24.374Z,30.45
2023-04-10T14:26:27.279Z,30.22
2023-04-10T14:31:30.471Z,30.03
2023-04-10T14:36:34.645Z,29.36
2023-04-10T14:41:37.441Z,29.82
2023-04-10T14:46:40.227Z,30.35
2023-04-10T14:51:48.459Z,30.16
2023-04-10T14:56:51.485Z,30.17
2023-04-10T15:01:54.813Z,29.93
2023-04-10T15:06:59.112Z,31.01
2023-04-10T15:12:02.194Z,31.68
2023-04-10T15:17:05.300Z,30.96
2023-04-10T15:22:09.476Z,31.32
2023-04-10T15:27:12.256Z,32.11
2023-04-10T15:32:15.069Z,30.80
2023-04-10T15:37:19.232Z,31.02
2023-04-10T15:42:22.056Z,31.63
2023-04-10T15:47:24.899Z,31.59
2023-04-10T15:52:31.727Z,31.71
2023-04-10T15:57:34.705Z,31.96
2023-04-10T16:02:37.831Z,31.66
2023-04-10T16:07:43.773Z,31.49
2023-04-10T16:12:46.902Z,32.04
2023-04-10T16:17:49.825Z,32.33
2023-04-10T16:22:54.566Z,31.97
2023-04-10T16:27:57.646Z,31.97
2023-04-10T16:33:00.570Z,32.53
2023-04-10T16:38:04.834Z,32.04
2023-04-10T16:43:07.675Z,32.43
2023-04-10T16:48:10.717Z,32.34
2023-04-10T16:53:14.949Z,33.10
2023-04-10T16:58:17.752Z,33.00
2023-04-10T17:03:20.651Z,33.19
2023-04-10T17:08:24.882Z,33.30
2023-04-10T17:13:27.817Z,33.03
2023-04-10T17:18:30.805Z,33.39
2023-04-10T17:23:34.987Z,34.09
2023-04-10T17:28:37.839Z,33.86
2023-04-10T17:33:41.781Z,34.23
2023-04-10T17:38:46.027Z,34.48
2023-04-10T17:43:49.509Z,34.55
2023-04-10T17:48:52.497Z,34.67
2023-04-10T17:53:56.947Z,34.62
2023-04-10T17:59:00.593Z,35.02
2023-04-10T18:04:04.478Z,35.33
2023-04-10T18:09:08.804Z,35.21
2023-04-10T18:14:11.668Z,35.44
2023-04-10T18:19:14.546Z,35.53
2023-04-10T18:24:18.824Z,35.67
2023-04-10T18:29:22.676Z,35.71
2023-04-10T18:34:25.484Z,35.74
2023-04-10T18:39:29.631Z,35.85
2023-04-10T18:44:34.507Z,36.03
2023-04-10T18:49:37.667Z,35.94
2023-04-10T18:54:41.941Z,36.04
2023-04-10T18:59:45.235Z,37.48
2023-04-10T19:04:48.370Z,37.77
2023-04-10T19:09:53.087Z,42.64
2023-04-10T19:14:55.940Z,39.99
2023-04-10T19:20:00.406Z,40.65
2023-04-10T19:25:04.784Z,40.71
2023-04-10T19:30:09.035Z,39.27
2023-04-10T19:35:11.884Z,39.94
2023-04-10T19:40:16.369Z,40.08
2023-04-10T19:45:20.415Z,39.00
2023-04-10T19:50:23.489Z,43.18
2023-04-10T19:55:28.525Z,48.45
2023-04-10T20:00:31.363Z,53.32
2023-04-10T20:05:34.201Z,66.99
2023-04-10T20:10:38.601Z,77.72
2023-04-10T20:15:41.497Z,79.25
2023-04-10T20:20:44.431Z,77.13
2023-04-10T20:25:49.120Z,77.09
2023-04-10T20:30:51.920Z,78.35
2023-04-10T20:35:54.837Z,76.94
2023-04-10T20:40:59.108Z,77.43
2023-04-10T20:46:04.038Z,77.20
2023-04-10T20:51:07.510Z,77.34
2023-04-10T20:56:11.920Z,79.04
2023-04-10T21:01:14.795Z,79.11
2023-04-10T21:06:18.197Z,80.08
2023-04-10T21:11:22.712Z,78.21
2023-04-10T21:16:25.522Z,75.93
2023-04-10T21:21:28.349Z,77.28
2023-04-10T21:26:32.573Z,77.94
2023-04-10T21:31:35.551Z,81.25
2023-04-10T21:36:39.430Z,81.93
2023-04-10T21:41:45.066Z,82.57
2023-04-10T21:46:47.926Z,82.41
2023-04-10T21:51:50.774Z,82.08
2023-04-10T21:56:54.945Z,81.53
2023-04-10T22:01:57.823Z,81.34
2023-04-10T22:07:00.653Z,80.92
2023-04-10T22:12:05.104Z,81.51
2023-04-10T22:17:08.111Z,81.79
2023-04-10T22:22:11.091Z,80.71
2023-04-10T22:27:15.333Z,81.01
2023-04-10T22:32:18.150Z,81.66
2023-04-10T22:37:20.914Z,82.68
2023-04-10T22:42:25.180Z,81.94
2023-04-10T22:47:28.120Z,81.20
2023-04-10T22:52:30.939Z,81.01
2023-04-10T22:57:35.325Z,81.84
2023-04-10T23:02:38.205Z,84.71
2023-04-10T23:07:41.165Z,84.10
2023-04-10T23:12:45.355Z,82.67
2023-04-10T23:17:48.222Z,83.18
2023-04-10T23:22:51.114Z,83.46
2023-04-10T23:27:55.534Z,83.07
2023-04-10T23:32:58.682Z,82.71
2023-04-10T23:38:01.760Z,82.13
2023-04-10T23:43:06.307Z,81.93
2023-04-10T23:48:11.678Z,80.90
2023-04-10T23:53:14.788Z,80.63
2023-04-10T23:58:19.038Z,80.18
